Aviation Digital Data Service (ADDS)

Output produced by METARs form (0817 UTC 19 April 2019)
found at http://www.aviationweather.gov/metar/data/
 
METAR text: ETNS 190720Z AUTO 07011KT 7000 // ////// 10/05 Q1034 ///
Conditions at: ETNS (SCHLESWIG(GER-NA, DE) observed 0720 UTC 19 April 2019
Temperature: 10.0°C (50°F)
Dewpoint: 5.0°C (41°F) [RH = 71%]
Pressure (altimeter): 30.53 inches Hg (1034.0 mb)
Winds: from the ENE (70 degrees) at 13 MPH (11 knots; 5.7 m/s)
Visibility: 4 miles ( 7 km)
Ceiling: unknown
Clouds: missing
Weather: no significant weather observed at this time

METAR text: ETNS 190620Z AUTO 07010KT 8000 // ////// 08/05 Q1034 ///
Conditions at: ETNS (SCHLESWIG(GER-NA, DE) observed 0620 UTC 19 April 2019
Temperature: 8.0°C (46°F)
Dewpoint: 5.0°C (41°F) [RH = 81%]
Pressure (altimeter): 30.53 inches Hg (1034.0 mb)
Winds: from the ENE (70 degrees) at 12 MPH (10 knots; 5.1 m/s)
Visibility: 5 miles ( 8 km)
Ceiling: unknown
Clouds: missing
Weather: no significant weather observed at this time

METAR text: ETNS 190520Z AUTO 07009KT 7000 // ////// 06/04 Q1034 ///
Conditions at: ETNS (SCHLESWIG(GER-NA, DE) observed 0520 UTC 19 April 2019
Temperature: 6.0°C (43°F)
Dewpoint: 4.0°C (39°F) [RH = 87%]
Pressure (altimeter): 30.53 inches Hg (1034.0 mb)
Winds: from the ENE (70 degrees) at 10 MPH (9 knots; 4.6 m/s)
Visibility: 4 miles ( 7 km)
Ceiling: unknown
Clouds: missing
Weather: no significant weather observed at this time

METAR text: ETNS 190420Z AUTO 07009KT 7000 // ////// 05/03 Q1034 ///
Conditions at: ETNS (SCHLESWIG(GER-NA, DE) observed 0420 UTC 19 April 2019
Temperature: 5.0°C (41°F)
Dewpoint: 3.0°C (37°F) [RH = 87%]
Pressure (altimeter): 30.53 inches Hg (1034.0 mb)
Winds: from the ENE (70 degrees) at 10 MPH (9 knots; 4.6 m/s)
Visibility: 4 miles ( 7 km)
Ceiling: unknown
Clouds: missing
Weather: no significant weather observed at this time

METAR text: ETNS 190320Z AUTO 07009KT 7000 // ////// 05/03 Q1033 ///
Conditions at: ETNS (SCHLESWIG(GER-NA, DE) observed 0320 UTC 19 April 2019
Temperature: 5.0°C (41°F)
Dewpoint: 3.0°C (37°F) [RH = 87%]
Pressure (altimeter): 30.50 inches Hg (1033.0 mb)
Winds: from the ENE (70 degrees) at 10 MPH (9 knots; 4.6 m/s)
Visibility: 4 miles ( 7 km)
Ceiling: unknown
Clouds: missing
Weather: no significant weather observed at this time

METAR text: ETNS 190220Z AUTO 07009KT 6000 // ////// 05/03 Q1033 ///
Conditions at: ETNS (SCHLESWIG(GER-NA, DE) observed 0220 UTC 19 April 2019
Temperature: 5.0°C (41°F)
Dewpoint: 3.0°C (37°F) [RH = 87%]
Pressure (altimeter): 30.50 inches Hg (1033.0 mb)
Winds: from the ENE (70 degrees) at 10 MPH (9 knots; 4.6 m/s)
Visibility: 4 miles ( 6 km)
Ceiling: unknown
Clouds: missing
Weather: no significant weather observed at this time

METAR text: ETNS 190120Z AUTO 07008KT 6000 // ////// 05/04 Q1034 ///
Conditions at: ETNS (SCHLESWIG(GER-NA, DE) observed 0120 UTC 19 April 2019
Temperature: 5.0°C (41°F)
Dewpoint: 4.0°C (39°F) [RH = 93%]
Pressure (altimeter): 30.53 inches Hg (1034.0 mb)
Winds: from the ENE (70 degrees) at 9 MPH (8 knots; 4.1 m/s)
Visibility: 4 miles ( 6 km)
Ceiling: unknown
Clouds: missing
Weather: no significant weather observed at this time

METAR text: ETNS 190020Z AUTO 07009KT 5000 // ////// 06/04 Q1034 ///
Conditions at: ETNS (SCHLESWIG(GER-NA, DE) observed 0020 UTC 19 April 2019
Temperature: 6.0°C (43°F)
Dewpoint: 4.0°C (39°F) [RH = 87%]
Pressure (altimeter): 30.53 inches Hg (1034.0 mb)
Winds: from the ENE (70 degrees) at 10 MPH (9 knots; 4.6 m/s)
Visibility: 3 miles ( 5 km)
Ceiling: unknown
Clouds: missing
Weather: no significant weather observed at this time

METAR text: ETNS 182320Z AUTO 07009KT 6000 // ////// 06/04 Q1034 ///
Conditions at: ETNS (SCHLESWIG(GER-NA, DE) observed 2320 UTC 18 April 2019
Temperature: 6.0°C (43°F)
Dewpoint: 4.0°C (39°F) [RH = 87%]
Pressure (altimeter): 30.53 inches Hg (1034.0 mb)
Winds: from the ENE (70 degrees) at 10 MPH (9 knots; 4.6 m/s)
Visibility: 4 miles ( 6 km)
Ceiling: unknown
Clouds: missing
Weather: no significant weather observed at this time

METAR text: ETNS 182220Z AUTO 07011KT 7000 // ////// 07/04 Q1034 ///
Conditions at: ETNS (SCHLESWIG(GER-NA, DE) observed 2220 UTC 18 April 2019
Temperature: 7.0°C (45°F)
Dewpoint: 4.0°C (39°F) [RH = 81%]
Pressure (altimeter): 30.53 inches Hg (1034.0 mb)
Winds: from the ENE (70 degrees) at 13 MPH (11 knots; 5.7 m/s)
Visibility: 4 miles ( 7 km)
Ceiling: unknown
Clouds: missing
Weather: no significant weather observed at this time

METAR text: ETNS 182120Z AUTO 06011KT 7000 // ////// 07/04 Q1033 ///
Conditions at: ETNS (SCHLESWIG(GER-NA, DE) observed 2120 UTC 18 April 2019
Temperature: 7.0°C (45°F)
Dewpoint: 4.0°C (39°F) [RH = 81%]
Pressure (altimeter): 30.50 inches Hg (1033.0 mb)
Winds: from the ENE (60 degrees) at 13 MPH (11 knots; 5.7 m/s)
Visibility: 4 miles ( 7 km)
Ceiling: unknown
Clouds: missing
Weather: no significant weather observed at this time

METAR text: ETNS 182020Z AUTO 06011KT 8000 // ////// 08/04 Q1033 ///
Conditions at: ETNS (SCHLESWIG(GER-NA, DE) observed 2020 UTC 18 April 2019
Temperature: 8.0°C (46°F)
Dewpoint: 4.0°C (39°F) [RH = 76%]
Pressure (altimeter): 30.50 inches Hg (1033.0 mb)
Winds: from the ENE (60 degrees) at 13 MPH (11 knots; 5.7 m/s)
Visibility: 5 miles ( 8 km)
Ceiling: unknown
Clouds: missing
Weather: no significant weather observed at this time

METAR text: ETNS 181920Z AUTO 05009KT 8000 // ////// 09/03 Q1033 ///
Conditions at: ETNS (SCHLESWIG(GER-NA, DE) observed 1920 UTC 18 April 2019
Temperature: 9.0°C (48°F)
Dewpoint: 3.0°C (37°F) [RH = 66%]
Pressure (altimeter): 30.50 inches Hg (1033.0 mb)
Winds: from the NE (50 degrees) at 10 MPH (9 knots; 4.6 m/s)
Visibility: 5 miles ( 8 km)
Ceiling: unknown
Clouds: missing
Weather: no significant weather observed at this time

METAR text: ETNS 181820Z AUTO 06011KT 8000 // ////// 11/02 Q1032 ///
Conditions at: ETNS (SCHLESWIG(GER-NA, DE) observed 1820 UTC 18 April 2019
Temperature: 11.0°C (52°F)
Dewpoint: 2.0°C (36°F) [RH = 54%]
Pressure (altimeter): 30.47 inches Hg (1032.0 mb)
Winds: from the ENE (60 degrees) at 13 MPH (11 knots; 5.7 m/s)
Visibility: 5 miles ( 8 km)
Ceiling: unknown
Clouds: missing
Weather: no significant weather observed at this time

METAR text: ETNS 181720Z AUTO 07010KT 8000 // ////// 13/01 Q1032 ///
Conditions at: ETNS (SCHLESWIG(GER-NA, DE) observed 1720 UTC 18 April 2019
Temperature: 13.0°C (55°F)
Dewpoint: 1.0°C (34°F) [RH = 44%]
Pressure (altimeter): 30.47 inches Hg (1032.0 mb)
Winds: from the ENE (70 degrees) at 12 MPH (10 knots; 5.1 m/s)
Visibility: 5 miles ( 8 km)
Ceiling: unknown
Clouds: missing
Weather: no significant weather observed at this time

METAR text: ETNS 181620Z AUTO 07017KT 9000 // ////// 14/01 Q1032 ///
Conditions at: ETNS (SCHLESWIG(GER-NA, DE) observed 1620 UTC 18 April 2019
Temperature: 14.0°C (57°F)
Dewpoint: 1.0°C (34°F) [RH = 41%]
Pressure (altimeter): 30.47 inches Hg (1032.0 mb)
Winds: from the ENE (70 degrees) at 20 MPH (17 knots; 8.7 m/s)
Visibility: 6 miles ( 9 km)
Ceiling: unknown
Clouds: missing
Weather: no significant weather observed at this time

METAR text: ETNS 181520Z AUTO 08017KT 8000 // ////// 15/01 Q1032 ///
Conditions at: ETNS (SCHLESWIG(GER-NA, DE) observed 1520 UTC 18 April 2019
Temperature: 15.0°C (59°F)
Dewpoint: 1.0°C (34°F) [RH = 39%]
Pressure (altimeter): 30.47 inches Hg (1032.0 mb)
Winds: from the E (80 degrees) at 20 MPH (17 knots; 8.7 m/s)
Visibility: 5 miles ( 8 km)
Ceiling: unknown
Clouds: missing
Weather: no significant weather observed at this time

METAR text: ETNS 181420Z AUTO 08019KT 8000 // ////// 15/01 Q1032 ///
Conditions at: ETNS (SCHLESWIG(GER-NA, DE) observed 1420 UTC 18 April 2019
Temperature: 15.0°C (59°F)
Dewpoint: 1.0°C (34°F) [RH = 39%]
Pressure (altimeter): 30.47 inches Hg (1032.0 mb)
Winds: from the E (80 degrees) at 22 MPH (19 knots; 9.8 m/s)
Visibility: 5 miles ( 8 km)
Ceiling: unknown
Clouds: missing
Weather: no significant weather observed at this time

METAR text: ETNS 181320Z AUTO 08019G29KT 8000 // ////// 15/01 Q1032 ///
Conditions at: ETNS (SCHLESWIG(GER-NA, DE) observed 1320 UTC 18 April 2019
Temperature: 15.0°C (59°F)
Dewpoint: 1.0°C (34°F) [RH = 39%]
Pressure (altimeter): 30.47 inches Hg (1032.0 mb)
Winds: from the E (80 degrees) at 22 MPH (19 knots; 9.8 m/s)
gusting to 33 MPH (29 knots; 14.9 m/s)
Visibility: 5 miles ( 8 km)
Ceiling: unknown
Clouds: missing
Weather: no significant weather observed at this time

METAR text: ETNS 181220Z 08020KT 9999 14/01 Q1033 BLU+
Conditions at: ETNS (SCHLESWIG(GER-NA, DE) observed 1220 UTC 18 April 2019
Temperature: 14.0°C (57°F)
Dewpoint: 1.0°C (34°F) [RH = 41%]
Pressure (altimeter): 30.50 inches Hg (1033.0 mb)
Winds: from the E (80 degrees) at 23 MPH (20 knots; 10.3 m/s)
Visibility: 6 or more miles (10+ km)
Ceiling: unknown
Clouds: missing
Weather: no significant weather observed at this time

METAR text: ETNS 181120Z 07021KT 9999 14/01 Q1033 BLU+
Conditions at: ETNS (SCHLESWIG(GER-NA, DE) observed 1120 UTC 18 April 2019
Temperature: 14.0°C (57°F)
Dewpoint: 1.0°C (34°F) [RH = 41%]
Pressure (altimeter): 30.50 inches Hg (1033.0 mb)
Winds: from the ENE (70 degrees) at 24 MPH (21 knots; 10.8 m/s)
Visibility: 6 or more miles (10+ km)
Ceiling: unknown
Clouds: missing
Weather: no significant weather observed at this time

METAR text: ETNS 181053Z 08019KT 9999 14/01 Q1033 BLU+FCST CANCEL
Conditions at: ETNS (SCHLESWIG(GER-NA, DE) observed 1053 UTC 18 April 2019
Temperature: 14.0°C (57°F)
Dewpoint: 1.0°C (34°F) [RH = 41%]
Pressure (altimeter): 30.50 inches Hg (1033.0 mb)
Winds: from the E (80 degrees) at 22 MPH (19 knots; 9.8 m/s)
Visibility: 6 or more miles (10+ km)
Ceiling: unknown
Clouds: missing
Weather: no significant weather observed at this time

METAR text: ETNS 181020Z 08015KT 9999 14/03 Q1033 BLU+BLU+
Conditions at: ETNS (SCHLESWIG(GER-NA, DE) observed 1020 UTC 18 April 2019
Temperature: 14.0°C (57°F)
Dewpoint: 3.0°C (37°F) [RH = 47%]
Pressure (altimeter): 30.50 inches Hg (1033.0 mb)
Winds: from the E (80 degrees) at 17 MPH (15 knots; 7.7 m/s)
Visibility: 6 or more miles (10+ km)
Ceiling: unknown
Clouds: missing
Weather: no significant weather observed at this time

METAR text: ETNS 180920Z 08013KT 9999 FEW300 13/03 Q1033 BLU+BLU+
Conditions at: ETNS (SCHLESWIG(GER-NA, DE) observed 0920 UTC 18 April 2019
Temperature: 13.0°C (55°F)
Dewpoint: 3.0°C (37°F) [RH = 51%]
Pressure (altimeter): 30.50 inches Hg (1033.0 mb)
Winds: from the E (80 degrees) at 15 MPH (13 knots; 6.7 m/s)
Visibility: 6 or more miles (10+ km)
Ceiling: at least 12,000 feet AGL
Clouds: few clouds at 30000 feet AGL
Weather: no significant weather observed at this time

METAR text: ETNS 180820Z 06013KT 9999 FEW300 11/04 Q1033 BLU+BLU+
Conditions at: ETNS (SCHLESWIG(GER-NA, DE) observed 0820 UTC 18 April 2019
Temperature: 11.0°C (52°F)
Dewpoint: 4.0°C (39°F) [RH = 62%]
Pressure (altimeter): 30.50 inches Hg (1033.0 mb)
Winds: from the ENE (60 degrees) at 15 MPH (13 knots; 6.7 m/s)
Visibility: 6 or more miles (10+ km)
Ceiling: at least 12,000 feet AGL
Clouds: few clouds at 30000 feet AGL
Weather: no significant weather observed at this time

METAR text: ETNS 180720Z 08014KT 9999 10/04 Q1032 BLU+BLU+
Conditions at: ETNS (SCHLESWIG(GER-NA, DE) observed 0720 UTC 18 April 2019
Temperature: 10.0°C (50°F)
Dewpoint: 4.0°C (39°F) [RH = 66%]
Pressure (altimeter): 30.47 inches Hg (1032.0 mb)
Winds: from the E (80 degrees) at 16 MPH (14 knots; 7.2 m/s)
Visibility: 6 or more miles (10+ km)
Ceiling: unknown
Clouds: missing
Weather: no significant weather observed at this time

METAR text: ETNS 180620Z 08012KT 9999 08/04 Q1032 BLU+BLU+
Conditions at: ETNS (SCHLESWIG(GER-NA, DE) observed 0620 UTC 18 April 2019
Temperature: 8.0°C (46°F)
Dewpoint: 4.0°C (39°F) [RH = 76%]
Pressure (altimeter): 30.47 inches Hg (1032.0 mb)
Winds: from the E (80 degrees) at 14 MPH (12 knots; 6.2 m/s)
Visibility: 6 or more miles (10+ km)
Ceiling: unknown
Clouds: missing
Weather: no significant weather observed at this time

METAR text: ETNS 180520Z 07008KT 9999 06/03 Q1032 BLU+BLU+
Conditions at: ETNS (SCHLESWIG(GER-NA, DE) observed 0520 UTC 18 April 2019
Temperature: 6.0°C (43°F)
Dewpoint: 3.0°C (37°F) [RH = 81%]
Pressure (altimeter): 30.47 inches Hg (1032.0 mb)
Winds: from the ENE (70 degrees) at 9 MPH (8 knots; 4.1 m/s)
Visibility: 6 or more miles (10+ km)
Ceiling: unknown
Clouds: missing
Weather: no significant weather observed at this time

METAR text: ETNS 180420Z 07009KT 9000 MIFG FEW280 05/03 Q1031 BLU+BLU+
Conditions at: ETNS (SCHLESWIG(GER-NA, DE) observed 0420 UTC 18 April 2019
Temperature: 5.0°C (41°F)
Dewpoint: 3.0°C (37°F) [RH = 87%]
Pressure (altimeter): 30.44 inches Hg (1031.0 mb)
Winds: from the ENE (70 degrees) at 10 MPH (9 knots; 4.6 m/s)
Visibility: 6 miles ( 9 km)
Ceiling: at least 12,000 feet AGL
Clouds: few clouds at 28000 feet AGL
Weather: MIFG  (shallow fog)

METAR text: ETNS 180320Z 07008KT 9000 05/04 Q1031 BLU+
Conditions at: ETNS (SCHLESWIG(GER-NA, DE) observed 0320 UTC 18 April 2019
Temperature: 5.0°C (41°F)
Dewpoint: 4.0°C (39°F) [RH = 93%]
Pressure (altimeter): 30.44 inches Hg (1031.0 mb)
Winds: from the ENE (70 degrees) at 9 MPH (8 knots; 4.1 m/s)
Visibility: 6 miles ( 9 km)
Ceiling: unknown
Clouds: missing
Weather: no significant weather observed at this time

METAR text: ETNS 180220Z AUTO 07009KT 6000 // ////// 05/03 Q1031 ///
Conditions at: ETNS (SCHLESWIG(GER-NA, DE) observed 0220 UTC 18 April 2019
Temperature: 5.0°C (41°F)
Dewpoint: 3.0°C (37°F) [RH = 87%]
Pressure (altimeter): 30.44 inches Hg (1031.0 mb)
Winds: from the ENE (70 degrees) at 10 MPH (9 knots; 4.6 m/s)
Visibility: 4 miles ( 6 km)
Ceiling: unknown
Clouds: missing
Weather: no significant weather observed at this time

METAR text: ETNS 180120Z AUTO 07009KT 7000 // ////// 05/03 Q1031 ///
Conditions at: ETNS (SCHLESWIG(GER-NA, DE) observed 0120 UTC 18 April 2019
Temperature: 5.0°C (41°F)
Dewpoint: 3.0°C (37°F) [RH = 87%]
Pressure (altimeter): 30.44 inches Hg (1031.0 mb)
Winds: from the ENE (70 degrees) at 10 MPH (9 knots; 4.6 m/s)
Visibility: 4 miles ( 7 km)
Ceiling: unknown
Clouds: missing
Weather: no significant weather observed at this time

METAR text: ETNS 180020Z AUTO 07008KT 6000 // ////// 06/04 Q1031 ///
Conditions at: ETNS (SCHLESWIG(GER-NA, DE) observed 0020 UTC 18 April 2019
Temperature: 6.0°C (43°F)
Dewpoint: 4.0°C (39°F) [RH = 87%]
Pressure (altimeter): 30.44 inches Hg (1031.0 mb)
Winds: from the ENE (70 degrees) at 9 MPH (8 knots; 4.1 m/s)
Visibility: 4 miles ( 6 km)
Ceiling: unknown
Clouds: missing
Weather: no significant weather observed at this time

METAR text: ETNS 172320Z AUTO 07008KT 6000 // ////// 06/04 Q1031 ///
Conditions at: ETNS (SCHLESWIG(GER-NA, DE) observed 2320 UTC 17 April 2019
Temperature: 6.0°C (43°F)
Dewpoint: 4.0°C (39°F) [RH = 87%]
Pressure (altimeter): 30.44 inches Hg (1031.0 mb)
Winds: from the ENE (70 degrees) at 9 MPH (8 knots; 4.1 m/s)
Visibility: 4 miles ( 6 km)
Ceiling: unknown
Clouds: missing
Weather: no significant weather observed at this time

METAR text: ETNS 172220Z AUTO 06009KT 7000 // ////// 05/03 Q1030 ///
Conditions at: ETNS (SCHLESWIG(GER-NA, DE) observed 2220 UTC 17 April 2019
Temperature: 5.0°C (41°F)
Dewpoint: 3.0°C (37°F) [RH = 87%]
Pressure (altimeter): 30.41 inches Hg (1030.0 mb)
Winds: from the ENE (60 degrees) at 10 MPH (9 knots; 4.6 m/s)
Visibility: 4 miles ( 7 km)
Ceiling: unknown
Clouds: missing
Weather: no significant weather observed at this time

METAR text: ETNS 172120Z AUTO 06005KT 8000 // ////// 06/03 Q1030 ///
Conditions at: ETNS (SCHLESWIG(GER-NA, DE) observed 2120 UTC 17 April 2019
Temperature: 6.0°C (43°F)
Dewpoint: 3.0°C (37°F) [RH = 81%]
Pressure (altimeter): 30.41 inches Hg (1030.0 mb)
Winds: from the ENE (60 degrees) at 6 MPH (5 knots; 2.6 m/s)
Visibility: 5 miles ( 8 km)
Ceiling: unknown
Clouds: missing
Weather: no significant weather observed at this time

METAR text: ETNS 172020Z AUTO 06010KT 8000 // ////// 07/04 Q1030 ///
Conditions at: ETNS (SCHLESWIG(GER-NA, DE) observed 2020 UTC 17 April 2019
Temperature: 7.0°C (45°F)
Dewpoint: 4.0°C (39°F) [RH = 81%]
Pressure (altimeter): 30.41 inches Hg (1030.0 mb)
Winds: from the ENE (60 degrees) at 12 MPH (10 knots; 5.1 m/s)
Visibility: 5 miles ( 8 km)
Ceiling: unknown
Clouds: missing
Weather: no significant weather observed at this time